Time;durP1;ratioP1;P1;durP2;ratioP2;P2;SDS_P1;SDS_P2;PMS_P1;PMS_P2;Temp;Humidity;BMP_temperature;BMP_pressure;BME280_temperature;BME280_humidity;BME280_pressure;Samples;Min_cycle;Max_cycle;Signal;HPM_P1;HPM_P2
2021/11/08 00:01:55;;;;;;;19.02;7.00;;;;;;;;;;4995830;28;20341;-78
2021/11/08 00:04:24;;;;;;;26.85;5.90;;;;;;;;;;4996411;28;20426;-78
2021/11/08 00:06:51;;;;;;;23.05;6.43;;;;;;;;;;4996805;28;20250;-78
2021/11/08 00:09:17;;;;;;;22.38;6.25;;;;;;;;;;4996538;28;20171;-77
2021/11/08 00:11:44;;;;;;;18.55;5.80;;;;;;;;;;4995935;28;20675;-78
2021/11/08 00:14:12;;;;;;;14.55;5.60;;;;;;;;;;4995327;28;20234;-81
2021/11/08 00:21:48;;;;;;;24.65;6.20;;;;;;;;;;5183457;23;20268;-79
2021/11/08 00:24:20;;;;;;;17.13;5.80;;;;;;;;;;4986557;28;20218;-76
2021/11/08 00:26:47;;;;;;;24.80;6.63;;;;;;;;;;4988384;28;20167;-79
2021/11/08 00:29:13;;;;;;;24.23;6.45;;;;;;;;;;4995707;28;20262;-76
2021/11/08 00:31:39;;;;;;;26.58;5.80;;;;;;;;;;4995630;28;20202;-76
2021/11/08 00:34:05;;;;;;;19.92;6.38;;;;;;;;;;4995721;28;20230;-76
2021/11/08 00:36:31;;;;;;;17.67;5.70;;;;;;;;;;4994290;28;20176;-77
2021/11/08 00:38:57;;;;;;;22.80;7.70;;;;;;;;;;4994176;28;20237;-78
2021/11/08 00:41:23;;;;;;;17.85;6.60;;;;;;;;;;4995502;28;20435;-78
2021/11/08 00:43:49;;;;;;;35.15;7.22;;;;;;;;;;4995621;28;20713;-76
2021/11/08 00:46:20;;;;;;;28.70;6.27;;;;;;;;;;4995577;28;20207;-78
2021/11/08 00:48:46;;;;;;;15.38;5.60;;;;;;;;;;4995813;28;20742;-78
2021/11/08 00:51:14;;;;;;;27.38;6.95;;;;;;;;;;4977811;28;20208;-76
2021/11/08 00:53:41;;;;;;;21.38;5.75;;;;;;;;;;4994706;28;20579;-80
2021/11/08 00:56:12;;;;;;;19.10;5.60;;;;;;;;;;4995579;28;20178;-78
2021/11/08 00:58:40;;;;;;;21.55;6.45;;;;;;;;;;4995662;28;20183;-80
2021/11/08 01:01:08;;;;;;;17.30;5.80;;;;;;;;;;4995103;28;20558;-78
2021/11/08 01:03:36;;;;;;;17.23;5.90;;;;;;;;;;4994210;28;20181;-78
2021/11/08 01:06:02;;;;;;;20.52;5.50;;;;;;;;;;4994015;28;20215;-80
2021/11/08 01:08:28;;;;;;;16.67;6.18;;;;;;;;;;4995222;28;20171;-77
2021/11/08 01:10:54;;;;;;;17.35;5.38;;;;;;;;;;4994966;28;20215;-80
2021/11/08 01:13:20;;;;;;;24.23;5.55;;;;;;;;;;4995252;28;20261;-77
2021/11/08 01:15:46;;;;;;;24.73;5.43;;;;;;;;;;4995238;28;20278;-78
2021/11/08 01:18:12;;;;;;;17.58;6.75;;;;;;;;;;4995204;28;20426;-78
2021/11/08 01:20:45;;;;;;;15.32;5.45;;;;;;;;;;4994912;28;20222;-78
2021/11/08 01:23:13;;;;;;;12.93;4.63;;;;;;;;;;4995185;28;20308;-78
2021/11/08 01:25:40;;;;;;;18.70;5.10;;;;;;;;;;4994873;28;20213;-78
2021/11/08 01:28:07;;;;;;;21.30;6.25;;;;;;;;;;4995008;28;20172;-79
2021/11/08 01:30:33;;;;;;;12.18;5.10;;;;;;;;;;4993134;28;20214;-77
2021/11/08 01:33:05;;;;;;;18.00;5.75;;;;;;;;;;4994806;28;20175;-79
2021/11/08 01:35:56;;;;;;;15.57;6.35;;;;;;;;;;4994805;28;20176;-78
2021/11/08 01:38:27;;;;;;;18.85;6.05;;;;;;;;;;4994709;28;20702;-77
2021/11/08 01:40:53;;;;;;;22.98;7.13;;;;;;;;;;4994217;28;20680;-79
2021/11/08 01:43:24;;;;;;;21.90;6.53;;;;;;;;;;4993539;28;20263;-79
2021/11/08 01:45:51;;;;;;;19.40;6.00;;;;;;;;;;4994707;28;20204;-78
2021/11/08 01:48:17;;;;;;;25.73;7.20;;;;;;;;;;4994765;28;20182;-80
2021/11/08 01:50:43;;;;;;;26.53;7.17;;;;;;;;;;4992698;28;20205;-78
2021/11/08 01:53:11;;;;;;;16.40;5.75;;;;;;;;;;4993251;28;20419;-80
2021/11/08 01:55:37;;;;;;;25.48;7.22;;;;;;;;;;4994449;28;20168;-78
2021/11/08 01:58:03;;;;;;;16.60;6.28;;;;;;;;;;4994376;28;20183;-81
2021/11/08 02:00:29;;;;;;;17.30;5.65;;;;;;;;;;4993857;28;20205;-80
2021/11/08 02:02:56;;;;;;;20.75;7.45;;;;;;;;;;4994499;28;20182;-81
2021/11/08 02:05:22;;;;;;;20.77;6.38;;;;;;;;;;4994521;28;20675;-80
2021/11/08 02:07:49;;;;;;;16.48;6.63;;;;;;;;;;4994474;28;20356;-79
2021/11/08 02:10:16;;;;;;;28.15;7.40;;;;;;;;;;4994103;28;20234;-78
2021/11/08 02:12:43;;;;;;;27.05;8.85;;;;;;;;;;4992930;28;20250;-77
2021/11/08 02:15:12;;;;;;;22.85;6.80;;;;;;;;;;4994167;28;20179;-80
2021/11/08 02:17:41;;;;;;;24.08;6.10;;;;;;;;;;4994240;28;20175;-78
2021/11/08 02:20:13;;;;;;;25.90;6.40;;;;;;;;;;4992498;28;20199;-78
2021/11/08 02:22:39;;;;;;;17.88;6.57;;;;;;;;;;4994044;28;20601;-78
2021/11/08 02:25:05;;;;;;;29.80;7.47;;;;;;;;;;4993812;28;20307;-80
2021/11/08 02:27:32;;;;;;;22.05;6.78;;;;;;;;;;4993044;28;20463;-80
2021/11/08 02:29:58;;;;;;;30.50;7.35;;;;;;;;;;4993656;28;20198;-79
2021/11/08 02:32:24;;;;;;;17.15;5.05;;;;;;;;;;4994064;28;20636;-79
2021/11/08 02:34:50;;;;;;;19.23;7.30;;;;;;;;;;4993972;28;20188;-80
2021/11/08 02:37:17;;;;;;;24.15;6.93;;;;;;;;;;4991978;28;20418;-80
2021/11/08 02:39:46;;;;;;;22.20;5.43;;;;;;;;;;4993451;28;20212;-79
2021/11/08 02:42:12;;;;;;;23.30;6.43;;;;;;;;;;4993866;28;20285;-79
2021/11/08 02:44:38;;;;;;;29.38;6.70;;;;;;;;;;4993686;28;20221;-79
2021/11/08 02:47:05;;;;;;;30.53;6.47;;;;;;;;;;4993655;28;20175;-79
2021/11/08 02:49:34;;;;;;;27.58;6.80;;;;;;;;;;4993325;28;20476;-80
2021/11/08 02:52:05;;;;;;;23.20;7.95;;;;;;;;;;4992935;28;20180;-80
2021/11/08 02:54:47;;;;;;;23.00;6.85;;;;;;;;;;4994087;28;20221;-79
2021/11/08 02:57:13;;;;;;;32.13;6.43;;;;;;;;;;4993866;28;20211;-79
2021/11/08 02:59:39;;;;;;;23.00;7.10;;;;;;;;;;4993595;28;20211;-80
2021/11/08 03:02:06;;;;;;;23.33;7.47;;;;;;;;;;4993853;28;20648;-79
2021/11/08 03:04:37;;;;;;;21.42;6.32;;;;;;;;;;4993728;28;20298;-80
2021/11/08 03:07:03;;;;;;;32.38;7.10;;;;;;;;;;4993654;28;20202;-81
2021/11/08 03:09:34;;;;;;;27.60;8.43;;;;;;;;;;4993241;28;20187;-81
2021/11/08 03:12:07;;;;;;;24.42;6.50;;;;;;;;;;4993760;28;20172;-80
2021/11/08 03:14:36;;;;;;;35.97;6.78;;;;;;;;;;4993639;28;20174;-80
2021/11/08 03:17:04;;;;;;;27.63;6.63;;;;;;;;;;4992432;28;20184;-78
2021/11/08 03:19:36;;;;;;;32.90;6.65;;;;;;;;;;4993164;28;20175;-78
2021/11/08 03:22:05;;;;;;;25.17;5.88;;;;;;;;;;4977142;28;20290;-78
2021/11/08 03:29:44;;;;;;;30.63;7.13;;;;;;;;;;4992988;28;20683;-78
2021/11/08 03:32:11;;;;;;;21.52;6.78;;;;;;;;;;4993513;28;20174;-78
2021/11/08 03:34:39;;;;;;;24.55;5.15;;;;;;;;;;4993487;28;20200;-80
2021/11/08 03:37:05;;;;;;;43.75;7.75;;;;;;;;;;4993339;28;20172;-79
2021/11/08 03:39:31;;;;;;;23.02;5.88;;;;;;;;;;4992637;28;20180;-79
2021/11/08 03:41:57;;;;;;;23.30;6.75;;;;;;;;;;4992119;28;20175;-81
2021/11/08 03:44:23;;;;;;;28.20;5.55;;;;;;;;;;4993153;28;20203;-79
2021/11/08 03:46:49;;;;;;;20.30;6.90;;;;;;;;;;4993445;28;20642;-79
2021/11/08 03:49:15;;;;;;;29.88;8.40;;;;;;;;;;4996329;28;20267;-80
2021/11/08 03:51:41;;;;;;;18.45;5.28;;;;;;;;;;4996619;28;20185;-81
2021/11/08 03:54:08;;;;;;;18.90;5.60;;;;;;;;;;4996699;28;20179;-81
2021/11/08 03:56:34;;;;;;;15.95;4.55;;;;;;;;;;4996542;28;20407;-79
2021/11/08 03:59:01;;;;;;;24.33;6.40;;;;;;;;;;4995266;28;20187;-80
2021/11/08 04:01:30;;;;;;;24.90;6.78;;;;;;;;;;4996036;28;20282;-79
2021/11/08 04:03:56;;;;;;;26.45;6.10;;;;;;;;;;4996521;28;20178;-81
2021/11/08 04:06:22;;;;;;;22.10;6.40;;;;;;;;;;4995222;28;20218;-81
2021/11/08 04:08:48;;;;;;;26.55;6.25;;;;;;;;;;4995294;28;20187;-76
2021/11/08 04:11:14;;;;;;;23.02;5.20;;;;;;;;;;4996393;28;20206;-77
2021/11/08 04:13:42;;;;;;;17.90;6.10;;;;;;;;;;4995266;28;20179;-79
2021/11/08 04:16:12;;;;;;;19.13;5.10;;;;;;;;;;4996913;28;20326;-79
2021/11/08 04:18:45;;;;;;;27.30;6.68;;;;;;;;;;4996526;28;20669;-79
2021/11/08 04:21:11;;;;;;;20.10;5.18;;;;;;;;;;4995970;28;20745;-79
2021/11/08 04:23:37;;;;;;;28.40;6.53;;;;;;;;;;4996174;28;20215;-78
2021/11/08 04:26:05;;;;;;;18.40;6.70;;;;;;;;;;4995986;28;20212;-78
2021/11/08 04:28:31;;;;;;;18.23;5.45;;;;;;;;;;4996101;28;20206;-80
2021/11/08 04:30:57;;;;;;;28.33;6.55;;;;;;;;;;4995680;28;20191;-78
2021/11/08 04:36:02;;;;;;;25.88;5.82;;;;;;;;;;4995828;28;20179;-79
2021/11/08 04:49:01;;;;;;;20.17;5.38;;;;;;;;;;4995146;28;20728;-80
2021/11/08 04:54:12;;;;;;;20.35;5.60;;;;;;;;;;4995543;28;20191;-78
2021/11/08 05:24:12;;;;;;;25.57;5.53;;;;;;;;;;4995049;28;20195;-77
2021/11/08 05:31:45;;;;;;;17.47;5.27;;;;;;;;;;4994912;28;20180;-78
2021/11/08 05:34:11;;;;;;;23.88;6.10;;;;;;;;;;4994792;28;20410;-80
2021/11/08 05:36:37;;;;;;;23.67;6.00;;;;;;;;;;4994696;28;20262;-79
2021/11/08 05:39:06;;;;;;;21.50;6.15;;;;;;;;;;4993583;28;20199;-81
2021/11/08 05:41:33;;;;;;;16.92;5.65;;;;;;;;;;4994319;28;20199;-78
2021/11/08 05:44:01;;;;;;;17.33;6.43;;;;;;;;;;4994659;28;20263;-78
2021/11/08 05:46:27;;;;;;;18.35;6.38;;;;;;;;;;4994487;28;20189;-78
2021/11/08 05:48:54;;;;;;;28.60;7.13;;;;;;;;;;4994561;28;20175;-81
2021/11/08 05:51:20;;;;;;;24.48;6.47;;;;;;;;;;4994352;28;20187;-77
2021/11/08 05:53:47;;;;;;;20.33;6.95;;;;;;;;;;4993492;28;20234;-79
2021/11/08 06:50:52;;;;;;;26.88;8.05;;;;;;;;;;4993593;28;20214;-77
2021/11/08 06:53:19;;;;;;;27.30;8.13;;;;;;;;;;4992662;28;20183;-78
2021/11/08 06:55:49;;;;;;;27.98;6.30;;;;;;;;;;4994006;28;20203;-77
2021/11/08 06:58:17;;;;;;;24.38;8.00;;;;;;;;;;4994214;28;20262;-80
2021/11/08 07:00:45;;;;;;;22.38;7.53;;;;;;;;;;4993497;28;20238;-80
2021/11/08 07:03:11;;;;;;;25.75;9.20;;;;;;;;;;4993530;28;20259;-77
2021/11/08 07:05:37;;;;;;;30.88;7.60;;;;;;;;;;4992735;28;20203;-79
2021/11/08 07:08:03;;;;;;;26.63;6.80;;;;;;;;;;4993587;28;20190;-79
2021/11/08 07:10:29;;;;;;;19.58;7.90;;;;;;;;;;4993220;28;20437;-79
2021/11/08 07:12:56;;;;;;;20.85;7.57;;;;;;;;;;4993466;28;20171;-79
2021/11/08 07:15:23;;;;;;;29.88;8.65;;;;;;;;;;4993493;28;20293;-78
2021/11/08 07:17:49;;;;;;;20.02;7.97;;;;;;;;;;4993789;28;20168;-78
2021/11/08 07:20:15;;;;;;;27.55;7.25;;;;;;;;;;4991830;28;20252;-79
2021/11/08 07:22:41;;;;;;;26.20;9.80;;;;;;;;;;4994897;28;20233;-78
2021/11/08 07:25:08;;;;;;;20.83;7.07;;;;;;;;;;4997226;28;20671;-79
2021/11/08 07:27:34;;;;;;;18.13;7.15;;;;;;;;;;4997371;28;20184;-78
2021/11/08 07:30:00;;;;;;;20.27;6.73;;;;;;;;;;4995852;28;20200;-78
2021/11/08 07:32:26;;;;;;;20.08;7.07;;;;;;;;;;4997293;28;20771;-77
2021/11/08 07:34:53;;;;;;;21.83;7.05;;;;;;;;;;4997253;28;20190;-79
2021/11/08 07:37:19;;;;;;;26.13;7.90;;;;;;;;;;4996981;28;20179;-78
2021/11/08 07:39:45;;;;;;;23.80;7.60;;;;;;;;;;4996690;28;20216;-77
2021/11/08 07:42:11;;;;;;;19.40;8.75;;;;;;;;;;4996955;28;20266;-79
2021/11/08 07:44:37;;;;;;;25.52;7.50;;;;;;;;;;4996874;28;20215;-78
2021/11/08 07:47:03;;;;;;;31.35;8.32;;;;;;;;;;4996968;28;20189;-80
2021/11/08 07:49:29;;;;;;;23.35;7.93;;;;;;;;;;4996342;28;20172;-78
2021/11/08 07:51:55;;;;;;;29.17;8.40;;;;;;;;;;4997068;28;20179;-78
2021/11/08 07:54:21;;;;;;;27.55;7.55;;;;;;;;;;4997125;28;20895;-78
2021/11/08 07:56:48;;;;;;;28.13;7.97;;;;;;;;;;4995793;28;20186;-80
2021/11/08 07:59:18;;;;;;;25.73;9.45;;;;;;;;;;4995373;28;20202;-79
2021/11/08 08:01:47;;;;;;;23.63;7.97;;;;;;;;;;4996901;28;20624;-78
2021/11/08 08:04:13;;;;;;;22.65;8.00;;;;;;;;;;4995840;28;20525;-78
2021/11/08 08:06:39;;;;;;;24.17;8.52;;;;;;;;;;4996717;28;20183;-77
2021/11/08 08:09:05;;;;;;;27.05;7.40;;;;;;;;;;4996657;28;20179;-77
2021/11/08 08:11:31;;;;;;;25.30;9.60;;;;;;;;;;4996089;28;20559;-78
2021/11/08 08:13:58;;;;;;;19.75;7.75;;;;;;;;;;4996455;28;20629;-77
2021/11/08 08:16:24;;;;;;;21.48;7.05;;;;;;;;;;4996534;28;20254;-78
2021/11/08 08:18:50;;;;;;;20.33;8.87;;;;;;;;;;4996478;28;20210;-79
2021/11/08 08:21:17;;;;;;;29.23;9.43;;;;;;;;;;4996089;28;20451;-76
2021/11/08 08:23:43;;;;;;;19.08;7.78;;;;;;;;;;4996439;28;20547;-77
2021/11/08 08:26:09;;;;;;;23.75;7.68;;;;;;;;;;4996338;28;20207;-78
2021/11/08 08:28:35;;;;;;;25.35;9.23;;;;;;;;;;4996449;28;20176;-78
2021/11/08 08:31:01;;;;;;;24.83;7.85;;;;;;;;;;4996130;28;20545;-75
2021/11/08 08:33:28;;;;;;;23.60;6.20;;;;;;;;;;4994705;28;20184;-78
2021/11/08 08:35:54;;;;;;;29.73;7.45;;;;;;;;;;4995668;28;20576;-78
2021/11/08 08:38:22;;;;;;;22.58;8.20;;;;;;;;;;4996049;28;20531;-79
2021/11/08 08:40:49;;;;;;;32.78;8.90;;;;;;;;;;4994438;28;20203;-78
2021/11/08 08:43:16;;;;;;;23.63;9.05;;;;;;;;;;4995848;28;20190;-77
2021/11/08 08:45:42;;;;;;;24.02;6.82;;;;;;;;;;4995540;28;20203;-77
2021/11/08 08:48:09;;;;;;;18.38;7.03;;;;;;;;;;4994542;28;20557;-80
2021/11/08 08:50:35;;;;;;;17.42;7.05;;;;;;;;;;4995350;28;20195;-79
2021/11/08 08:53:01;;;;;;;20.25;7.07;;;;;;;;;;4995733;28;20250;-79
2021/11/08 08:55:28;;;;;;;17.27;7.22;;;;;;;;;;4995881;28;20271;-79
2021/11/08 08:57:54;;;;;;;21.80;8.40;;;;;;;;;;4995623;28;20223;-76
2021/11/08 09:00:21;;;;;;;23.08;7.80;;;;;;;;;;4995265;28;20290;-77
2021/11/08 09:02:48;;;;;;;25.33;7.53;;;;;;;;;;4995537;28;20194;-80
2021/11/08 09:05:14;;;;;;;25.65;7.57;;;;;;;;;;4994364;28;20222;-78
2021/11/08 09:07:40;;;;;;;24.67;8.40;;;;;;;;;;4994660;28;20179;-79
2021/11/08 09:10:06;;;;;;;23.67;7.53;;;;;;;;;;4995076;28;20437;-78
2021/11/08 09:12:32;;;;;;;26.00;8.32;;;;;;;;;;4995602;28;20407;-78
2021/11/08 09:14:58;;;;;;;29.70;7.25;;;;;;;;;;4995454;28;20593;-76
2021/11/08 09:17:25;;;;;;;27.43;7.90;;;;;;;;;;4995383;28;20179;-77
2021/11/08 09:19:51;;;;;;;23.98;7.78;;;;;;;;;;4994874;28;21014;-76
2021/11/08 09:22:17;;;;;;;21.30;7.50;;;;;;;;;;4993813;28;20223;-79
2021/11/08 09:24:43;;;;;;;22.37;7.80;;;;;;;;;;4993675;28;20241;-78
2021/11/08 09:27:09;;;;;;;24.00;8.30;;;;;;;;;;4995033;28;20402;-77
2021/11/08 09:29:35;;;;;;;29.33;8.40;;;;;;;;;;4994580;28;20211;-76
2021/11/08 09:32:01;;;;;;;27.48;8.52;;;;;;;;;;4994994;28;20506;-78
2021/11/08 09:34:27;;;;;;;17.08;5.85;;;;;;;;;;4993841;28;20274;-76
2021/11/08 09:36:58;;;;;;;29.30;8.73;;;;;;;;;;4995159;28;20251;-78
2021/11/08 09:39:27;;;;;;;27.42;8.93;;;;;;;;;;4993405;28;20175;-78
2021/11/08 09:41:54;;;;;;;22.60;7.15;;;;;;;;;;4994791;28;20164;-77
2021/11/08 09:44:20;;;;;;;22.65;7.68;;;;;;;;;;4994463;28;20176;-80
2021/11/08 09:46:50;;;;;;;19.85;7.72;;;;;;;;;;4994553;28;20175;-77
2021/11/08 09:49:16;;;;;;;21.50;7.90;;;;;;;;;;4994256;28;20250;-79
2021/11/08 09:51:44;;;;;;;32.42;8.45;;;;;;;;;;4994561;28;20186;-76
2021/11/08 09:54:11;;;;;;;27.90;7.53;;;;;;;;;;4994498;28;20185;-79
2021/11/08 09:56:38;;;;;;;33.35;7.40;;;;;;;;;;4994522;28;20699;-77
2021/11/08 09:59:04;;;;;;;15.77;6.32;;;;;;;;;;4994620;28;20203;-78
2021/11/08 10:01:31;;;;;;;22.40;7.35;;;;;;;;;;4994345;28;20195;-79
2021/11/08 10:03:58;;;;;;;25.58;8.10;;;;;;;;;;4994531;28;20179;-77
2021/11/08 10:06:26;;;;;;;18.90;6.03;;;;;;;;;;4992992;28;20218;-76
2021/11/08 10:08:52;;;;;;;29.73;7.32;;;;;;;;;;4994529;28;20689;-77
2021/11/08 10:11:19;;;;;;;19.90;6.28;;;;;;;;;;4993973;28;20246;-77
2021/11/08 10:13:46;;;;;;;23.70;7.90;;;;;;;;;;4994553;28;20171;-79
2021/11/08 10:16:13;;;;;;;27.58;8.05;;;;;;;;;;4994225;28;20176;-80
2021/11/08 10:18:42;;;;;;;27.55;7.57;;;;;;;;;;4992931;28;20180;-78
2021/11/08 10:21:12;;;;;;;20.98;7.10;;;;;;;;;;4993697;28;20218;-78
2021/11/08 10:23:40;;;;;;;20.33;7.35;;;;;;;;;;4993245;28;20213;-80
2021/11/08 10:26:11;;;;;;;18.25;6.55;;;;;;;;;;4993986;28;20294;-79
2021/11/08 10:28:37;;;;;;;31.45;7.68;;;;;;;;;;4994025;28;20175;-75
2021/11/08 10:31:10;;;;;;;27.13;7.20;;;;;;;;;;4993793;28;20199;-79
2021/11/08 10:33:38;;;;;;;20.45;7.20;;;;;;;;;;4994051;28;20178;-79
2021/11/08 10:36:13;;;;;;;22.88;7.25;;;;;;;;;;4994161;28;20266;-77
2021/11/08 10:38:40;;;;;;;28.33;6.53;;;;;;;;;;4993779;28;20198;-76
2021/11/08 10:41:17;;;;;;;25.15;7.20;;;;;;;;;;4992189;28;20195;-77
2021/11/08 10:43:45;;;;;;;21.08;8.15;;;;;;;;;;4993783;28;20589;-78
2021/11/08 10:46:14;;;;;;;28.17;6.40;;;;;;;;;;4993659;28;20207;-76
2021/11/08 10:48:41;;;;;;;28.73;7.72;;;;;;;;;;4993479;28;20180;-78
2021/11/08 10:51:09;;;;;;;25.27;6.88;;;;;;;;;;4991912;28;20209;-76
2021/11/08 10:53:45;;;;;;;19.08;6.50;;;;;;;;;;4993748;28;20175;-77
2021/11/08 10:56:14;;;;;;;25.55;7.03;;;;;;;;;;4993753;28;20182;-77
2021/11/08 10:58:44;;;;;;;20.60;6.93;;;;;;;;;;4996627;28;20249;-78
2021/11/08 11:01:19;;;;;;;21.65;6.53;;;;;;;;;;4997198;28;20438;-78
2021/11/08 11:03:48;;;;;;;27.90;7.50;;;;;;;;;;4997747;28;20167;-77
2021/11/08 11:06:14;;;;;;;25.33;6.27;;;;;;;;;;4997581;28;20474;-78
2021/11/08 11:08:49;;;;;;;25.20;6.53;;;;;;;;;;4997533;28;20417;-78
2021/11/08 11:11:16;;;;;;;24.03;7.67;;;;;;;;;;4997394;28;21008;-77
2021/11/08 11:13:49;;;;;;;25.23;6.50;;;;;;;;;;4997783;28;20762;-79
2021/11/08 11:16:15;;;;;;;21.23;7.10;;;;;;;;;;4997672;28;20443;-77
2021/11/08 11:18:41;;;;;;;16.60;6.00;;;;;;;;;;4997367;28;20855;-76
2021/11/08 11:21:18;;;;;;;41.70;7.50;;;;;;;;;;4995549;28;20470;-79
2021/11/08 11:23:50;;;;;;;21.50;6.97;;;;;;;;;;4997361;28;20406;-78
2021/11/08 11:26:17;;;;;;;23.20;5.97;;;;;;;;;;4997195;28;20889;-76
2021/11/08 11:28:46;;;;;;;25.67;6.10;;;;;;;;;;4997229;28;20414;-77
2021/11/08 11:31:23;;;;;;;20.57;5.90;;;;;;;;;;4996613;28;20430;-80
2021/11/08 11:33:52;;;;;;;24.53;8.17;;;;;;;;;;4997263;28;20437;-79
2021/11/08 11:36:19;;;;;;;25.63;7.60;;;;;;;;;;4995761;28;20426;-79
2021/11/08 11:38:55;;;;;;;18.27;5.97;;;;;;;;;;4995698;28;20457;-79
2021/11/08 11:41:23;;;;;;;22.87;7.27;;;;;;;;;;4995214;28;20473;-79
2021/11/08 11:43:51;;;;;;;20.27;7.00;;;;;;;;;;4996896;28;20425;-77
2021/11/08 11:46:19;;;;;;;16.40;5.80;;;;;;;;;;4995495;28;20469;-79
2021/11/08 11:48:46;;;;;;;24.27;6.00;;;;;;;;;;4997000;28;20414;-79
2021/11/08 11:51:14;;;;;;;14.57;5.47;;;;;;;;;;4996204;28;20405;-77
2021/11/08 11:53:41;;;;;;;25.07;5.80;;;;;;;;;;4996780;28;20406;-76
2021/11/08 11:56:07;;;;;;;20.73;5.90;;;;;;;;;;4996790;28;20490;-75
2021/11/08 11:58:33;;;;;;;15.13;5.90;;;;;;;;;;4996660;28;20749;-80
2021/11/08 12:00:59;;;;;;;19.40;4.97;;;;;;;;;;4996283;28;20432;-78
2021/11/08 12:03:26;;;;;;;24.60;7.03;;;;;;;;;;4996460;28;20411;-79
2021/11/08 12:05:55;;;;;;;18.80;5.30;;;;;;;;;;4995494;28;20489;-77
2021/11/08 12:08:22;;;;;;;14.03;5.00;;;;;;;;;;4994600;28;20411;-77
2021/11/08 12:10:50;;;;;;;24.93;5.40;;;;;;;;;;4995485;28;20435;-80
2021/11/08 12:13:18;;;;;;;25.57;6.33;;;;;;;;;;4995226;28;20425;-77
2021/11/08 12:15:44;;;;;;;21.63;5.50;;;;;;;;;;4996508;28;20803;-80
2021/11/08 12:18:12;;;;;;;21.60;5.30;;;;;;;;;;4996502;28;20426;-79
2021/11/08 12:20:47;;;;;;;22.80;5.50;;;;;;;;;;4995875;28;20794;-76
2021/11/08 12:23:34;;;;;;;20.43;4.93;;;;;;;;;;4996440;28;20418;-79
2021/11/08 12:26:00;;;;;;;18.53;4.60;;;;;;;;;;4996034;28;20549;-77
2021/11/08 12:28:27;;;;;;;19.87;4.43;;;;;;;;;;4996422;28;20453;-78
2021/11/08 12:30:59;;;;;;;13.53;3.90;;;;;;;;;;4995783;28;20427;-77
2021/11/08 12:33:33;;;;;;;15.90;4.50;;;;;;;;;;4996133;28;20750;-76
2021/11/08 12:36:01;;;;;;;32.20;4.83;;;;;;;;;;4996149;28;20411;-78
2021/11/08 12:38:31;;;;;;;19.70;4.43;;;;;;;;;;4994800;28;20513;-78
2021/11/08 12:41:06;;;;;;;15.43;4.40;;;;;;;;;;4995566;28;20445;-81
2021/11/08 12:43:33;;;;;;;16.80;3.87;;;;;;;;;;4995825;28;20425;-77
2021/11/08 12:46:09;;;;;;;17.17;4.60;;;;;;;;;;4995844;28;20465;-78
2021/11/08 12:48:37;;;;;;;12.93;3.50;;;;;;;;;;4995791;28;20419;-76
2021/11/08 12:51:04;;;;;;;13.50;3.77;;;;;;;;;;4995343;28;20458;-77
2021/11/08 12:53:33;;;;;;;18.37;3.93;;;;;;;;;;4995530;28;20410;-77
2021/11/08 12:56:08;;;;;;;11.37;3.80;;;;;;;;;;4995716;28;20905;-78
2021/11/08 12:58:48;;;;;;;11.97;3.83;;;;;;;;;;4995718;28;20491;-78
2021/11/08 13:01:19;;;;;;;14.67;4.10;;;;;;;;;;4995356;28;20569;-78
2021/11/08 13:03:47;;;;;;;15.77;4.53;;;;;;;;;;4994141;28;20434;-77
2021/11/08 13:06:23;;;;;;;16.15;3.90;;;;;;;;;;4995535;28;20466;-78
2021/11/08 13:08:50;;;;;;;15.53;4.00;;;;;;;;;;4995553;28;20183;-78
2021/11/08 13:11:16;;;;;;;14.50;4.82;;;;;;;;;;4977807;28;20442;-79
2021/11/08 13:13:54;;;;;;;16.73;6.33;;;;;;;;;;4994068;28;20188;-76
2021/11/08 13:16:30;;;;;;;17.95;4.43;;;;;;;;;;4994033;28;20840;-78
2021/11/08 13:19:01;;;;;;;15.00;4.05;;;;;;;;;;4995490;28;20183;-77
2021/11/08 13:21:27;;;;;;;18.83;4.28;;;;;;;;;;4994481;28;20215;-76
2021/11/08 13:23:55;;;;;;;13.68;4.47;;;;;;;;;;4995123;28;20661;-79
2021/11/08 13:26:21;;;;;;;14.40;4.38;;;;;;;;;;4995120;28;20262;-78
2021/11/08 13:28:47;;;;;;;16.33;4.03;;;;;;;;;;4995245;28;20203;-79
2021/11/08 13:31:14;;;;;;;18.30;4.13;;;;;;;;;;4994555;28;20703;-77
2021/11/08 13:33:42;;;;;;;11.90;3.83;;;;;;;;;;4993566;28;20410;-78
2021/11/08 13:36:09;;;;;;;17.73;4.50;;;;;;;;;;4994817;28;20202;-76
2021/11/08 13:38:38;;;;;;;17.00;3.30;;;;;;;;;;4994824;28;20175;-78
2021/11/08 13:41:09;;;;;;;19.25;4.80;;;;;;;;;;4994522;28;20613;-79
2021/11/08 13:43:39;;;;;;;13.35;4.18;;;;;;;;;;4993730;28;20230;-79
2021/11/08 13:46:10;;;;;;;16.90;4.43;;;;;;;;;;4994582;28;20207;-78
2021/11/08 13:48:43;;;;;;;11.63;3.42;;;;;;;;;;4994568;28;20179;-78
2021/11/08 13:51:20;;;;;;;12.65;3.78;;;;;;;;;;4994313;28;20281;-80
2021/11/08 13:53:50;;;;;;;15.68;4.90;;;;;;;;;;4993271;28;20644;-78
2021/11/08 13:56:17;;;;;;;15.00;4.75;;;;;;;;;;4994487;28;20175;-76
2021/11/08 13:58:49;;;;;;;16.42;4.50;;;;;;;;;;4994305;28;20218;-76
2021/11/08 14:01:15;;;;;;;10.68;5.00;;;;;;;;;;4994170;28;20199;-77
2021/11/08 14:03:43;;;;;;;13.77;4.75;;;;;;;;;;4994570;28;20184;-76
2021/11/08 14:06:09;;;;;;;18.27;4.32;;;;;;;;;;4994289;28;20210;-77
2021/11/08 14:08:43;;;;;;;22.38;4.63;;;;;;;;;;4994674;28;20176;-81
2021/11/08 14:11:09;;;;;;;25.55;4.35;;;;;;;;;;4994531;28;20199;-77
2021/11/08 14:13:37;;;;;;;13.85;3.92;;;;;;;;;;4994662;28;20172;-78
2021/11/08 14:16:07;;;;;;;12.57;3.83;;;;;;;;;;4994388;28;20644;-79
2021/11/08 14:18:34;;;;;;;18.25;4.65;;;;;;;;;;4994451;28;20172;-79
2021/11/08 14:21:27;;;;;;;15.10;4.17;;;;;;;;;;4993634;28;20246;-77
2021/11/08 14:24:05;;;;;;;14.80;4.77;;;;;;;;;;4990761;28;20451;-79
2021/11/08 14:26:32;;;;;;;13.10;4.20;;;;;;;;;;4992845;28;20462;-78
2021/11/08 14:28:58;;;;;;;10.13;3.27;;;;;;;;;;4994051;28;20402;-79
2021/11/08 14:31:29;;;;;;;12.37;3.67;;;;;;;;;;4993291;28;20447;-77
2021/11/08 14:33:58;;;;;;;18.27;4.23;;;;;;;;;;4993811;28;20410;-80
2021/11/08 14:36:27;;;;;;;13.50;4.00;;;;;;;;;;4993795;28;20422;-77
2021/11/08 14:39:00;;;;;;;8.37;3.60;;;;;;;;;;4992592;28;20437;-76
2021/11/08 14:41:32;;;;;;;13.97;3.73;;;;;;;;;;4993537;28;20441;-76
2021/11/08 14:43:59;;;;;;;10.90;2.30;;;;;;;;;;4992577;28;20864;-79
2021/11/08 14:46:35;;;;;;;16.17;3.80;;;;;;;;;;4993607;28;20462;-77
2021/11/08 14:49:08;;;;;;;16.93;3.37;;;;;;;;;;4993800;28;20417;-78
2021/11/08 14:51:35;;;;;;;6.97;3.20;;;;;;;;;;4993371;28;20526;-79
2021/11/08 14:54:02;;;;;;;13.63;3.40;;;;;;;;;;4993763;28;20408;-76
2021/11/08 14:56:31;;;;;;;16.10;3.93;;;;;;;;;;4993405;28;20480;-76
2021/11/08 14:58:58;;;;;;;9.73;3.60;;;;;;;;;;4993745;28;20506;-76
2021/11/08 15:01:25;;;;;;;8.47;3.10;;;;;;;;;;4993495;28;20836;-79
2021/11/08 15:04:04;;;;;;;15.80;4.00;;;;;;;;;;4993714;28;20419;-77
2021/11/08 15:06:30;;;;;;;15.73;3.55;;;;;;;;;;4993653;28;20493;-77
2021/11/08 15:09:06;;;;;;;12.13;2.70;;;;;;;;;;4993680;28;20242;-80
2021/11/08 15:11:32;;;;;;;15.75;3.63;;;;;;;;;;4993360;28;20427;-80
2021/11/08 15:14:05;;;;;;;22.25;4.50;;;;;;;;;;4993576;28;20562;-81
2021/11/08 15:16:42;;;;;;;20.10;5.67;;;;;;;;;;4993724;28;20194;-79
2021/11/08 15:19:08;;;;;;;10.82;3.90;;;;;;;;;;4993587;28;20413;-78
2021/11/08 15:21:34;;;;;;;11.10;3.97;;;;;;;;;;4993096;28;20238;-77
2021/11/08 15:24:08;;;;;;;11.00;3.25;;;;;;;;;;4993685;28;20426;-79
2021/11/08 15:26:34;;;;;;;15.43;3.60;;;;;;;;;;4993488;28;20195;-78
2021/11/08 15:29:08;;;;;;;17.57;4.10;;;;;;;;;;4993690;28;20402;-77
2021/11/08 15:31:34;;;;;;;15.88;3.70;;;;;;;;;;4993399;28;20501;-78
2021/11/08 15:34:08;;;;;;;15.10;3.83;;;;;;;;;;4993628;28;20195;-80
2021/11/08 15:36:40;;;;;;;14.32;3.97;;;;;;;;;;4992525;28;20650;-78
2021/11/08 15:39:09;;;;;;;12.85;3.95;;;;;;;;;;4993261;28;20238;-79
2021/11/08 15:41:35;;;;;;;12.90;3.65;;;;;;;;;;4993212;28;20192;-79
2021/11/08 15:44:01;;;;;;;11.68;4.10;;;;;;;;;;4994083;28;20214;-79
2021/11/08 15:46:27;;;;;;;14.63;3.75;;;;;;;;;;4995666;28;20249;-80
2021/11/08 15:48:54;;;;;;;14.70;3.95;;;;;;;;;;4995670;28;20190;-77
2021/11/08 15:51:21;;;;;;;16.67;4.40;;;;;;;;;;4996650;28;20561;-80
2021/11/08 15:53:48;;;;;;;21.40;3.75;;;;;;;;;;4995587;28;20190;-79
2021/11/08 15:56:14;;;;;;;15.98;4.32;;;;;;;;;;4996587;28;20184;-79
2021/11/08 15:58:40;;;;;;;10.20;3.77;;;;;;;;;;4995575;28;20254;-77
2021/11/08 16:01:08;;;;;;;17.60;4.53;;;;;;;;;;4994984;28;20438;-80
2021/11/08 16:03:35;;;;;;;15.43;3.40;;;;;;;;;;4996550;28;20411;-78
2021/11/08 16:06:01;;;;;;;12.65;3.90;;;;;;;;;;4995248;28;20222;-77
2021/11/08 16:08:28;;;;;;;15.45;3.88;;;;;;;;;;4996612;28;20184;-80
2021/11/08 16:10:54;;;;;;;11.05;3.05;;;;;;;;;;4996173;28;20199;-84
2021/11/08 16:13:20;;;;;;;14.00;3.87;;;;;;;;;;4995869;28;20182;-80
2021/11/08 16:15:47;;;;;;;10.45;5.38;;;;;;;;;;4996428;28;20415;-79
2021/11/08 16:18:14;;;;;;;16.27;3.80;;;;;;;;;;4996600;28;20218;-80
2021/11/08 16:20:41;;;;;;;17.83;3.65;;;;;;;;;;4995891;28;20253;-78
2021/11/08 16:23:07;;;;;;;13.18;4.20;;;;;;;;;;4995063;28;20187;-81
2021/11/08 16:25:34;;;;;;;12.13;3.30;;;;;;;;;;4996235;28;20667;-78
2021/11/08 16:28:00;;;;;;;17.73;5.18;;;;;;;;;;4996197;28;20174;-78
2021/11/08 16:30:26;;;;;;;11.55;3.60;;;;;;;;;;4995879;28;20204;-78